Time;durP1;ratioP1;P1;durP2;ratioP2;P2;SDS_P1;SDS_P2;PMS_P1;PMS_P2;Temp;Humidity;BMP_temperature;BMP_pressure;BME280_temperature;BME280_humidity;BME280_pressure;Samples;Min_cycle;Max_cycle;Signal;HPM_P1;HPM_P2
2020/12/17 00:00:27;;;;;;;65.20;25.45;;;;;;;-0.39;91.83;101126.23;1758995;81;21546;-73
2020/12/17 00:02:55;;;;;;;72.65;26.60;;;;;;;-0.37;91.98;101130.12;1823504;78;21281;-72
2020/12/17 00:05:23;;;;;;;70.03;26.10;;;;;;;-0.40;92.14;101134.81;1758937;81;21166;-73
2020/12/17 00:07:51;;;;;;;76.85;29.15;;;;;;;-0.37;92.06;101147.81;1823400;78;21075;-72
2020/12/17 00:10:19;;;;;;;66.28;25.25;;;;;;;-0.35;92.04;101147.44;1823619;78;21059;-71
2020/12/17 00:12:47;;;;;;;70.25;26.95;;;;;;;-0.34;92.12;101153.09;1823386;78;21098;-72
2020/12/17 00:15:17;;;;;;;73.83;26.62;;;;;;;-0.32;92.04;101147.53;1759078;81;21387;-72
2020/12/17 00:17:48;;;;;;;68.80;28.73;;;;;;;-0.27;91.99;101154.11;1823508;78;21062;-73
2020/12/17 00:20:22;;;;;;;72.97;30.77;;;;;;;-0.26;91.99;101155.42;1823672;78;21484;-73
2020/12/17 00:22:50;;;;;;;66.35;25.50;;;;;;;-0.24;92.01;101152.45;1823537;78;21012;-72
2020/12/17 00:25:18;;;;;;;67.42;27.15;;;;;;;-0.20;91.99;101155.13;1759126;81;21677;-71
2020/12/17 00:27:46;;;;;;;70.47;27.35;;;;;;;-0.14;91.99;101146.19;1823394;78;21422;-72
2020/12/17 00:30:15;;;;;;;63.75;25.57;;;;;;;-0.11;91.90;101153.62;1758979;81;21138;-72
2020/12/17 00:32:44;;;;;;;75.32;30.95;;;;;;;-0.11;91.80;101147.58;1823607;78;21570;-73
2020/12/17 00:35:12;;;;;;;76.95;28.15;;;;;;;-0.11;91.79;101144.98;1759209;81;21111;-71
2020/12/17 00:37:40;;;;;;;61.53;23.87;;;;;;;-0.10;91.76;101149.31;1823538;78;21060;-72
2020/12/17 00:40:13;;;;;;;70.22;29.55;;;;;;;-0.08;91.68;101146.34;1759039;81;22270;-71
2020/12/17 00:42:44;;;;;;;61.30;24.87;;;;;;;-0.09;91.62;101138.09;1823500;78;21107;-71
2020/12/17 00:45:15;;;;;;;63.48;26.35;;;;;;;-0.10;91.69;101144.13;1732128;81;21558;-72
2020/12/17 00:47:43;;;;;;;65.30;24.75;;;;;;;-0.09;91.65;101143.28;1823584;78;21841;-72
2020/12/17 00:50:11;;;;;;;61.25;25.82;;;;;;;-0.08;91.60;101133.39;1760094;81;21071;-70
2020/12/17 00:52:42;;;;;;;59.98;23.57;;;;;;;-0.09;91.59;101128.64;1761085;81;21369;-71
2020/12/17 00:55:10;;;;;;;66.28;24.72;;;;;;;-0.10;91.63;101121.69;1761264;80;21115;-71
2020/12/17 00:57:37;;;;;;;63.90;25.77;;;;;;;-0.10;91.62;101115.22;1760971;81;21083;-71
2020/12/17 01:00:06;;;;;;;60.63;24.98;;;;;;;-0.11;91.57;101108.73;1761348;81;21122;-69
2020/12/17 01:02:34;;;;;;;62.90;24.63;;;;;;;-0.12;91.59;101104.37;1761199;81;21215;-75
2020/12/17 01:05:04;;;;;;;57.25;22.58;;;;;;;-0.15;91.65;101107.78;1763512;81;21485;-71
2020/12/17 01:07:33;;;;;;;67.08;25.82;;;;;;;-0.17;91.80;101104.70;1761959;81;21107;-72
2020/12/17 01:10:01;;;;;;;61.85;24.50;;;;;;;-0.18;91.92;101099.95;1761276;81;21502;-73
2020/12/17 01:12:29;;;;;;;60.03;23.12;;;;;;;-0.19;91.95;101093.44;1761125;81;21054;-72
2020/12/17 01:14:59;;;;;;;58.78;21.82;;;;;;;-0.23;92.10;101093.38;1761128;81;21099;-71
2020/12/17 01:17:26;;;;;;;61.53;23.45;;;;;;;-0.26;92.32;101093.72;1761167;81;21380;-73
2020/12/17 01:19:54;;;;;;;59.38;24.10;;;;;;;-0.26;92.43;101091.13;1761002;81;21134;-73
2020/12/17 01:22:23;;;;;;;62.43;24.65;;;;;;;-0.27;92.52;101094.14;1761128;81;21128;-71
2020/12/17 01:24:50;;;;;;;71.92;25.32;;;;;;;-0.27;92.63;101098.02;1761088;81;21102;-73
2020/12/17 01:27:18;;;;;;;63.13;26.17;;;;;;;-0.26;92.70;101102.35;1761193;81;21182;-73
2020/12/17 01:29:48;;;;;;;64.32;25.10;;;;;;;-0.24;92.80;101101.10;1790234;80;21877;-72
2020/12/17 01:32:16;;;;;;;60.63;25.30;;;;;;;-0.20;92.79;101108.53;1790467;80;21193;-71
2020/12/17 01:34:44;;;;;;;65.78;26.60;;;;;;;-0.17;92.77;101111.17;1761197;81;21133;-72
2020/12/17 01:37:14;;;;;;;61.27;26.37;;;;;;;-0.15;92.78;101112.09;1746258;82;21151;-73
2020/12/17 01:39:42;;;;;;;62.58;27.35;;;;;;;-0.11;92.79;101115.20;1761300;81;21099;-72
2020/12/17 01:42:10;;;;;;;56.65;22.90;;;;;;;-0.09;92.71;101121.27;1747288;82;21364;-71
2020/12/17 01:44:39;;;;;;;71.53;26.73;;;;;;;-0.03;92.67;101126.59;1761022;81;21250;-72
2020/12/17 01:47:07;;;;;;;58.65;26.23;;;;;;;-0.01;92.68;101129.66;1747396;82;21127;-72
2020/12/17 01:49:35;;;;;;;57.60;26.05;;;;;;;0.05;92.68;101130.67;1751928;81;21152;-72
2020/12/17 01:52:03;;;;;;;67.27;27.02;;;;;;;0.05;92.65;101121.60;1735131;82;21129;-72
2020/12/17 01:54:33;;;;;;;67.17;28.67;;;;;;;0.15;92.62;101132.59;1736202;82;21193;-72
2020/12/17 01:57:05;;;;;;;68.45;29.65;;;;;;;0.20;92.51;101126.66;1736183;82;21117;-73
2020/12/17 01:59:38;;;;;;;75.45;30.52;;;;;;;0.22;92.42;101118.06;1736193;82;21092;-72
2020/12/17 02:02:06;;;;;;;68.20;28.73;;;;;;;0.19;92.31;101114.56;1750511;80;21583;-71
2020/12/17 02:04:35;;;;;;;71.92;30.90;;;;;;;0.19;92.17;101108.09;1737758;82;21104;-72
2020/12/17 02:07:04;;;;;;;70.95;29.30;;;;;;;0.18;92.03;101110.23;1742099;82;21357;-72
2020/12/17 02:09:31;;;;;;;85.00;33.33;;;;;;;0.18;92.01;101109.34;1703669;82;21132;-73
2020/12/17 02:11:59;;;;;;;73.40;30.95;;;;;;;0.16;91.99;101100.66;1730466;82;21560;-72
2020/12/17 02:14:27;;;;;;;74.80;30.17;;;;;;;0.16;91.96;101100.66;1741952;82;21133;-72
2020/12/17 02:16:55;;;;;;;64.40;26.42;;;;;;;0.14;91.91;101099.36;1750611;82;21113;-75
2020/12/17 02:19:24;;;;;;;73.85;30.68;;;;;;;0.16;91.97;101104.15;1730525;82;21246;-72
2020/12/17 02:21:51;;;;;;;66.22;28.23;;;;;;;0.19;92.11;101106.80;1730407;82;21139;-73
2020/12/17 02:24:21;;;;;;;62.70;25.95;;;;;;;0.20;92.13;101109.82;1719270;82;21121;-73
2020/12/17 02:26:50;;;;;;;57.03;23.83;;;;;;;0.24;92.01;101111.20;1742308;82;21117;-72
2020/12/17 02:29:19;;;;;;;50.65;22.00;;;;;;;0.25;91.89;101110.34;1742059;82;21097;-74
2020/12/17 02:31:47;;;;;;;63.98;25.45;;;;;;;0.25;91.91;101110.34;1741979;82;21355;-74
2020/12/17 02:34:17;;;;;;;61.65;26.12;;;;;;;0.23;91.87;101101.66;1741922;82;21164;-75
2020/12/17 02:36:45;;;;;;;55.48;24.65;;;;;;;0.25;91.79;101116.83;1741951;82;21169;-74
2020/12/17 02:39:12;;;;;;;56.40;25.40;;;;;;;0.25;91.76;101117.69;1742064;81;21532;-74
2020/12/17 02:41:40;;;;;;;56.68;25.10;;;;;;;0.27;91.79;101121.62;1741895;82;21065;-75
2020/12/17 02:45:00;;;;;;;63.80;26.40;;;;;;;0.39;91.96;101114.09;1760696;79;23422;-73
2020/12/17 02:47:29;;;;;;;60.10;26.55;;;;;;;0.37;91.92;101115.80;1656936;86;21590;-75
2020/12/17 02:49:57;;;;;;;62.62;26.70;;;;;;;0.41;91.84;101116.29;1673144;85;22092;-74
2020/12/17 02:52:25;;;;;;;55.45;25.57;;;;;;;0.46;91.76;101124.16;1667887;86;21180;-77
2020/12/17 02:54:53;;;;;;;55.35;24.25;;;;;;;0.47;91.75;101120.31;1667796;86;21703;-75
2020/12/17 02:57:24;;;;;;;55.50;24.47;;;;;;;0.48;91.66;101125.93;1668078;86;21180;-76
2020/12/17 02:59:52;;;;;;;56.83;24.15;;;;;;;0.45;91.64;101124.58;1691673;84;21197;-75
2020/12/17 03:02:20;;;;;;;50.90;23.77;;;;;;;0.48;91.64;101125.93;1691521;84;21295;-76
2020/12/17 03:04:48;;;;;;;52.75;22.75;;;;;;;0.47;91.40;101131.97;1691203;84;21210;-76
2020/12/17 03:07:19;;;;;;;47.20;20.75;;;;;;;0.44;91.31;101128.03;1691573;84;21214;-76
2020/12/17 03:09:49;;;;;;;56.25;26.15;;;;;;;0.44;91.43;101132.31;1691349;84;21170;-76
2020/12/17 03:12:17;;;;;;;51.65;22.40;;;;;;;0.45;91.54;101129.77;1691504;84;21212;-75
2020/12/17 03:14:44;;;;;;;66.82;27.52;;;;;;;0.46;91.42;101131.53;1691542;84;21579;-74
2020/12/17 03:17:13;;;;;;;51.63;23.02;;;;;;;0.44;91.29;101131.92;1691914;83;21767;-74
2020/12/17 03:19:42;;;;;;;54.03;21.57;;;;;;;0.47;91.35;101135.86;1693868;84;21902;-75
2020/12/17 03:22:10;;;;;;;57.80;25.32;;;;;;;0.47;91.38;101137.59;1693953;84;21667;-75
2020/12/17 03:24:39;;;;;;;56.75;24.52;;;;;;;0.47;91.45;101135.86;1693780;84;21173;-76
2020/12/17 03:27:07;;;;;;;52.60;22.22;;;;;;;0.51;91.41;101140.70;1694246;84;22043;-77
2020/12/17 03:29:35;;;;;;;41.95;18.20;;;;;;;0.55;91.39;101142.48;1694006;84;21157;-75
2020/12/17 03:32:03;;;;;;;51.40;21.73;;;;;;;0.58;91.36;101144.73;1694087;84;21189;-75
2020/12/17 03:34:31;;;;;;;48.65;21.95;;;;;;;0.58;91.37;101149.05;1693876;84;21109;-76
2020/12/17 03:36:59;;;;;;;52.23;22.48;;;;;;;0.55;91.19;101144.68;1694025;84;21172;-73
2020/12/17 03:39:27;;;;;;;46.53;21.45;;;;;;;0.57;91.12;101153.77;1693924;84;21240;-73
2020/12/17 03:41:55;;;;;;;44.88;21.37;;;;;;;0.55;91.05;101148.56;1693865;84;21177;-73
2020/12/17 03:44:23;;;;;;;44.30;21.68;;;;;;;0.53;91.11;101153.23;1686302;84;21162;-72
2020/12/17 03:46:51;;;;;;;55.73;24.50;;;;;;;0.51;91.23;101155.82;1696456;83;21193;-73
2020/12/17 03:49:19;;;;;;;53.02;24.20;;;;;;;0.53;91.19;101158.03;1700352;82;21924;-73
2020/12/17 03:51:47;;;;;;;53.30;24.77;;;;;;;0.57;91.21;101160.24;1712976;83;21285;-74
2020/12/17 03:54:16;;;;;;;55.67;23.02;;;;;;;0.62;91.26;101164.69;1713100;83;21175;-75
2020/12/17 03:56:44;;;;;;;59.75;25.80;;;;;;;0.65;91.34;101165.60;1712690;83;21191;-71
2020/12/17 03:59:12;;;;;;;52.83;23.77;;;;;;;0.68;91.34;101163.06;1714205;83;21695;-74
2020/12/17 04:01:40;;;;;;;52.50;23.15;;;;;;;0.69;91.41;101162.20;1714786;83;21100;-73
2020/12/17 04:04:08;;;;;;;53.50;24.23;;;;;;;0.74;91.30;101167.08;1714218;83;21352;-74
2020/12/17 04:06:36;;;;;;;58.83;26.50;;;;;;;0.77;91.22;101160.22;1712757;83;21226;-75
2020/12/17 04:09:05;;;;;;;50.52;23.70;;;;;;;0.80;91.26;101164.16;1713051;83;21182;-74
2020/12/17 04:11:33;;;;;;;52.60;22.60;;;;;;;0.82;91.26;101165.49;1712789;83;21814;-74
2020/12/17 04:14:01;;;;;;;46.75;20.88;;;;;;;0.82;91.24;101164.20;1712731;83;21176;-72
2020/12/17 04:16:29;;;;;;;45.52;20.68;;;;;;;0.81;91.08;101162.46;1712563;83;21375;-73
2020/12/17 04:18:57;;;;;;;41.30;20.70;;;;;;;0.80;90.87;101163.29;1684681;83;21187;-74
2020/12/17 04:21:27;;;;;;;45.28;20.55;;;;;;;0.78;90.76;101166.27;1712629;83;21175;-73
2020/12/17 04:23:56;;;;;;;48.83;20.82;;;;;;;0.75;90.77;101170.98;1712575;83;21226;-75
2020/12/17 04:26:24;;;;;;;44.27;19.67;;;;;;;0.73;90.80;101162.72;1712741;83;21211;-73
2020/12/17 04:28:52;;;;;;;51.33;21.45;;;;;;;0.71;90.83;101155.33;1712591;83;21440;-73
2020/12/17 04:31:20;;;;;;;43.42;19.57;;;;;;;0.74;90.79;101163.19;1712687;83;21131;-71
2020/12/17 04:33:48;;;;;;;45.70;20.50;;;;;;;0.72;90.81;101163.15;1712479;83;21552;-72
2020/12/17 04:36:16;;;;;;;43.20;20.12;;;;;;;0.71;90.86;101168.30;1714954;83;21606;-72
2020/12/17 04:38:45;;;;;;;50.78;23.90;;;;;;;0.68;90.89;101156.58;1742534;82;21198;-74
2020/12/17 04:41:15;;;;;;;49.95;23.90;;;;;;;0.69;90.89;101160.91;1745039;82;21379;-71
2020/12/17 04:43:42;;;;;;;60.83;25.23;;;;;;;0.68;90.90;101163.06;1746638;80;21230;-72
2020/12/17 04:46:14;;;;;;;55.58;27.05;;;;;;;0.69;90.97;101165.69;1756470;81;21157;-72
2020/12/17 04:48:42;;;;;;;49.83;22.85;;;;;;;0.71;91.07;101169.59;1756354;80;22302;-73
2020/12/17 04:51:10;;;;;;;60.75;26.17;;;;;;;0.71;91.12;101164.41;1727044;81;21210;-75
2020/12/17 04:53:38;;;;;;;46.45;22.25;;;;;;;0.74;91.04;101167.08;1725636;83;22118;-75
2020/12/17 04:56:06;;;;;;;46.83;21.65;;;;;;;0.77;91.03;101164.53;1725704;83;21230;-74
2020/12/17 04:58:35;;;;;;;48.80;22.77;;;;;;;0.77;91.02;101163.23;1725717;83;21625;-75
2020/12/17 05:01:03;;;;;;;48.20;21.55;;;;;;;0.79;91.08;101168.03;1725591;83;21199;-75
2020/12/17 05:03:31;;;;;;;41.08;19.57;;;;;;;0.82;91.14;101166.79;1653861;83;21607;-74
2020/12/17 05:06:01;;;;;;;56.73;25.82;;;;;;;0.84;91.19;101163.80;1676394;83;22759;-74
2020/12/17 05:08:29;;;;;;;54.42;25.40;;;;;;;0.87;91.11;101159.09;1699146;83;21578;-74
2020/12/17 05:10:57;;;;;;;57.08;27.82;;;;;;;0.89;90.91;101167.36;1725893;83;21611;-75
2020/12/17 05:13:25;;;;;;;78.10;35.13;;;;;;;0.91;90.90;101172.16;1726179;81;21146;-76
2020/12/17 05:15:53;;;;;;;65.70;30.00;;;;;;;0.88;90.82;101172.53;1725736;83;21656;-74
2020/12/17 05:18:21;;;;;;;66.47;30.88;;;;;;;0.87;90.85;101167.75;1725822;83;22148;-74
2020/12/17 05:20:49;;;;;;;60.50;28.27;;;;;;;0.85;90.72;101172.02;1698868;83;21165;-73
2020/12/17 05:23:21;;;;;;;57.38;25.77;;;;;;;0.83;90.64;101175.91;1699517;83;21661;-73
2020/12/17 05:25:52;;;;;;;55.67;26.37;;;;;;;0.84;90.55;101171.59;1725802;83;21134;-74
2020/12/17 05:28:19;;;;;;;53.65;24.45;;;;;;;0.82;90.50;101174.14;1726107;83;21150;-77
2020/12/17 05:30:47;;;;;;;53.52;25.00;;;;;;;0.85;90.53;101177.21;1725696;83;21205;-75
2020/12/17 05:33:16;;;;;;;59.10;25.40;;;;;;;0.87;90.54;101178.12;1725884;83;21186;-75
2020/12/17 05:35:44;;;;;;;46.90;23.32;;;;;;;0.89;90.50;101178.16;1725726;83;21198;-74
2020/12/17 05:38:11;;;;;;;53.38;25.08;;;;;;;0.93;90.40;101184.73;1699078;83;21869;-73
2020/12/17 05:40:41;;;;;;;49.25;21.20;;;;;;;0.97;90.34;101179.20;1725672;83;21163;-74
2020/12/17 05:43:10;;;;;;;54.10;25.92;;;;;;;0.98;90.27;101183.52;1725737;83;21385;-75
2020/12/17 05:45:38;;;;;;;39.45;17.42;;;;;;;0.99;90.35;101191.34;1719245;83;21182;-74
2020/12/17 05:48:18;;;;;;;52.03;23.92;;;;;;;0.98;90.28;101197.36;1717976;82;21183;-73
2020/12/17 05:51:00;;;;;;;53.23;28.30;;;;;;;1.04;90.39;101192.73;1871823;76;28235;-74
2020/12/17 05:53:30;;;;;;;47.88;25.12;;;;;;;1.09;90.15;101196.70;1859294;77;21279;-74
2020/12/17 05:56:08;;;;;;;54.98;25.00;;;;;;;1.16;89.92;101202.45;1859188;77;21363;-72
2020/12/17 05:58:42;;;;;;;56.15;26.25;;;;;;;1.18;89.86;101200.77;1859068;77;21263;-73
2020/12/17 06:01:16;;;;;;;51.65;23.92;;;;;;;1.15;89.74;101208.47;1859255;77;21608;-74
2020/12/17 06:03:45;;;;;;;45.57;21.60;;;;;;;1.05;89.67;101209.59;1860441;77;21150;-74
2020/12/17 06:06:14;;;;;;;54.10;23.77;;;;;;;1.03;89.79;101207.39;1860400;77;21118;-71
2020/12/17 06:08:42;;;;;;;41.58;19.70;;;;;;;1.02;89.80;101200.47;1860300;77;21363;-72
2020/12/17 06:11:10;;;;;;;46.02;20.52;;;;;;;1.07;89.64;101203.58;1859992;77;21178;-72
2020/12/17 06:13:40;;;;;;;42.83;19.80;;;;;;;1.09;89.64;101205.78;1860092;77;21561;-69
2020/12/17 06:16:10;;;;;;;41.18;20.15;;;;;;;1.09;89.69;101208.38;1860184;77;21549;-71
2020/12/17 06:18:54;;;;;;;54.03;23.80;;;;;;;1.10;89.73;101207.09;1860463;77;21167;-71
2020/12/17 06:21:24;;;;;;;55.78;23.47;;;;;;;1.08;89.77;101211.38;1860250;77;22150;-70
2020/12/17 06:23:58;;;;;;;47.48;22.65;;;;;;;1.09;89.79;101209.67;1860341;77;21123;-72
2020/12/17 06:26:26;;;;;;;54.60;25.15;;;;;;;1.11;89.72;101210.59;1860172;77;21131;-71
2020/12/17 06:28:54;;;;;;;51.63;24.75;;;;;;;1.11;89.60;101214.05;1826812;77;21641;-71
2020/12/17 06:31:26;;;;;;;53.28;26.02;;;;;;;1.10;89.52;101216.59;1860203;77;21130;-72
2020/12/17 06:34:05;;;;;;;43.00;20.90;;;;;;;1.10;89.68;101221.79;1860288;77;21373;-71
2020/12/17 06:36:44;;;;;;;58.35;25.10;;;;;;;1.09;89.68;101218.76;1860188;77;21146;-72
2020/12/17 06:39:12;;;;;;;53.60;24.65;;;;;;;1.09;89.72;101220.05;1860216;77;21111;-71
2020/12/17 06:41:39;;;;;;;51.48;23.95;;;;;;;1.10;89.55;101219.20;1860055;77;21148;-72
2020/12/17 06:44:27;;;;;;;44.55;22.00;;;;;;;1.05;89.39;101221.70;1842151;77;21158;-72
2020/12/17 06:47:03;;;;;;;43.42;20.45;;;;;;;1.03;89.45;101224.25;1818615;78;22233;-71
2020/12/17 06:49:31;;;;;;;54.55;25.82;;;;;;;1.05;89.60;101223.00;1827399;77;22087;-71
2020/12/17 06:52:08;;;;;;;55.92;26.02;;;;;;;1.08;89.66;101228.66;1782985;80;21103;-72
2020/12/17 06:54:41;;;;;;;54.10;26.15;;;;;;;1.04;89.67;101222.12;1786453;80;21150;-72
2020/12/17 06:57:16;;;;;;;55.65;26.37;;;;;;;1.08;89.59;101228.66;1782916;80;21142;-73
2020/12/17 07:00:09;;;;;;;54.93;27.15;;;;;;;1.10;89.48;101233.03;1786625;80;21614;-71
2020/12/17 07:02:42;;;;;;;56.10;26.77;;;;;;;1.11;89.46;101237.83;1784185;80;21151;-71
2020/12/17 07:05:32;;;;;;;63.17;28.17;;;;;;;1.11;89.50;101241.72;1786638;80;21222;-71
2020/12/17 07:25:40;;;;;;;38.88;16.75;;;;;;;0.96;89.55;101274.70;1700881;83;21702;-71
2020/12/17 07:28:08;;;;;;;38.95;18.85;;;;;;;1.01;89.56;101275.27;1751204;79;21139;-71
2020/12/17 07:30:35;;;;;;;50.98;21.87;;;;;;;1.01;89.62;101278.25;1747910;81;21194;-73
2020/12/17 07:33:03;;;;;;;36.15;15.85;;;;;;;1.03;89.75;101273.55;1752127;81;21381;-71
2020/12/17 07:35:32;;;;;;;49.63;23.75;;;;;;;1.03;89.72;101282.62;1725483;81;21193;-70
2020/12/17 07:38:00;;;;;;;44.08;22.95;;;;;;;1.08;89.78;101277.95;1722518;81;21171;-71
2020/12/17 07:40:43;;;;;;;82.95;33.35;;;;;;;1.12;89.68;101284.97;1754788;80;21635;-71
2020/12/17 07:43:15;;;;;;;117.00;44.30;;;;;;;1.12;89.46;101287.56;1773004;80;21198;-72
2020/12/17 07:45:57;;;;;;;141.18;53.28;;;;;;;1.09;89.41;101288.80;1764798;80;22086;-71
2020/12/17 07:48:54;;;;;;;156.85;59.23;;;;;;;1.09;89.56;101281.02;1754859;80;21168;-76
2020/12/17 07:51:31;;;;;;;166.20;66.35;;;;;;;1.10;89.60;101282.33;1768730;79;21234;-72
2020/12/17 07:54:03;;;;;;;206.05;81.02;;;;;;;1.13;89.48;101278.91;1760858;80;21180;-74
2020/12/17 07:56:31;;;;;;;159.07;65.92;;;;;;;1.17;89.47;101282.03;1767983;80;21186;-72
2020/12/17 07:59:01;;;;;;;63.80;29.70;;;;;;;1.23;89.38;101286.05;1759629;80;21833;-72
2020/12/17 08:01:30;;;;;;;53.80;23.38;;;;;;;1.27;89.37;101280.09;1787456;79;21212;-72
2020/12/17 08:03:58;;;;;;;43.30;21.07;;;;;;;1.31;89.34;101279.31;1797822;78;21171;-72
2020/12/17 08:06:27;;;;;;;50.92;24.15;;;;;;;1.34;89.38;101281.95;1787133;79;21603;-72
2020/12/17 08:09:01;;;;;;;79.53;35.45;;;;;;;1.35;89.33;101281.09;1785059;80;21668;-73
2020/12/17 08:11:30;;;;;;;82.25;35.98;;;;;;;1.36;89.19;101284.16;1783385;80;21590;-75
2020/12/17 08:14:04;;;;;;;65.25;29.70;;;;;;;1.38;89.15;101281.17;1786382;79;21628;-72
2020/12/17 08:16:32;;;;;;;39.00;19.25;;;;;;;1.41;89.24;101275.16;1786123;79;21163;-72
2020/12/17 08:19:00;;;;;;;38.13;20.43;;;;;;;1.44;89.34;101281.27;1787686;80;21261;-72
2020/12/17 08:21:28;;;;;;;48.48;23.47;;;;;;;1.48;89.34;101281.34;1782586;79;21669;-72
2020/12/17 08:23:57;;;;;;;37.15;18.73;;;;;;;1.49;89.14;101288.27;1752168;80;22107;-71
2020/12/17 08:26:29;;;;;;;49.98;24.80;;;;;;;1.53;89.07;101286.19;1782050;80;21178;-71
2020/12/17 08:28:58;;;;;;;52.45;26.07;;;;;;;1.57;88.97;101287.57;1782271;80;21166;-71
2020/12/17 08:31:31;;;;;;;54.45;26.87;;;;;;;1.58;88.75;101284.55;1782225;80;21167;-70
2020/12/17 08:34:00;;;;;;;57.90;28.95;;;;;;;1.55;88.64;101278.01;1782149;80;21131;-73
2020/12/17 08:36:32;;;;;;;76.10;36.53;;;;;;;1.57;88.64;101276.31;1782239;80;21400;-71
2020/12/17 08:39:06;;;;;;;73.50;37.63;;;;;;;1.61;88.62;101280.69;1751180;81;21263;-71
2020/12/17 08:41:40;;;;;;;54.20;25.70;;;;;;;1.63;88.48;101281.59;1748440;81;21674;-72
2020/12/17 08:44:09;;;;;;;56.53;26.30;;;;;;;1.68;88.39;101283.88;1751208;81;21590;-74
2020/12/17 08:46:41;;;;;;;55.98;27.27;;;;;;;1.74;88.55;101286.99;1751114;81;21171;-70
2020/12/17 08:49:09;;;;;;;42.27;23.80;;;;;;;1.75;88.54;101293.52;1775457;80;21186;-72
2020/12/17 08:51:37;;;;;;;42.00;22.95;;;;;;;1.77;88.45;101295.73;1767491;80;21238;-69
2020/12/17 08:54:05;;;;;;;60.12;27.05;;;;;;;1.78;88.33;101294.87;1773016;80;21126;-69
2020/12/17 08:56:33;;;;;;;61.25;30.02;;;;;;;1.79;88.11;101304.83;1759136;81;21150;-69
2020/12/17 08:59:04;;;;;;;51.77;26.02;;;;;;;1.79;87.91;101301.80;1771010;80;21705;-71
2020/12/17 09:01:38;;;;;;;54.18;24.37;;;;;;;1.80;87.69;101304.86;1759334;81;21368;-72
2020/12/17 09:04:07;;;;;;;41.20;19.80;;;;;;;1.84;87.87;101304.47;1770852;81;21615;-71
2020/12/17 09:06:37;;;;;;;47.58;23.30;;;;;;;1.85;88.11;101300.62;1759087;81;21573;-74
2020/12/17 09:09:24;;;;;;;55.38;26.93;;;;;;;1.88;88.21;101300.66;1770816;81;21176;-72
2020/12/17 09:11:50;;;;;;;61.73;30.35;;;;;;;1.89;88.06;101294.63;1759014;81;21210;-72
2020/12/17 09:17:16;;;;;;;71.00;31.87;;;;;;;1.89;87.51;101303.72;1756276;79;22927;-73
2020/12/17 09:50:17;;;;;;;40.33;19.32;;;;;;;2.09;86.79;101288.88;1704571;83;22440;-75
2020/12/17 09:52:45;;;;;;;41.83;20.68;;;;;;;2.13;86.75;101284.19;1654725;85;21163;-74
2020/12/17 09:55:13;;;;;;;43.15;20.25;;;;;;;2.18;86.49;101286.86;1677906;85;21618;-73
2020/12/17 09:57:45;;;;;;;34.90;16.80;;;;;;;2.24;86.34;101287.83;1678190;85;21126;-73
2020/12/17 10:00:14;;;;;;;54.15;25.15;;;;;;;2.29;86.36;101288.77;1677818;85;21431;-73
2020/12/17 10:02:42;;;;;;;45.10;22.07;;;;;;;2.35;86.29;101285.80;1677539;85;21195;-73
2020/12/17 10:05:11;;;;;;;49.15;22.27;;;;;;;2.38;86.12;101281.97;1657325;86;21207;-72
2020/12/17 10:07:46;;;;;;;42.20;20.30;;;;;;;2.42;85.92;101274.24;1678645;85;21168;-73
2020/12/17 10:10:14;;;;;;;44.53;22.25;;;;;;;2.47;85.64;101274.31;1658246;86;21187;-73
2020/12/17 10:12:44;;;;;;;53.38;26.50;;;;;;;2.51;85.36;101285.21;1677448;85;21368;-72
2020/12/17 10:15:12;;;;;;;49.20;23.83;;;;;;;2.53;85.30;101279.58;1675829;85;21210;-73
2020/12/17 10:17:40;;;;;;;51.58;24.00;;;;;;;2.55;85.12;101280.47;1647737;86;21654;-74
2020/12/17 10:20:11;;;;;;;55.90;25.08;;;;;;;2.56;85.00;101282.23;1639515;87;21219;-74
2020/12/17 10:22:41;;;;;;;56.85;25.48;;;;;;;2.57;84.83;101277.48;1637881;87;21259;-72
2020/12/17 10:25:10;;;;;;;52.27;26.05;;;;;;;2.62;84.64;101279.73;1638881;87;21251;-72
2020/12/17 10:27:38;;;;;;;44.38;21.97;;;;;;;2.66;84.74;101271.09;1638275;87;21702;-75
2020/12/17 10:30:06;;;;;;;54.60;27.80;;;;;;;2.68;84.54;101273.30;1638638;86;22368;-72
2020/12/17 10:35:25;;;;;;;54.50;27.33;;;;;;;2.78;84.45;101273.42;1843574;76;22682;-73
2020/12/17 10:37:54;;;;;;;57.60;26.62;;;;;;;2.75;84.31;101273.39;1804647;77;21178;-74
2020/12/17 10:40:21;;;;;;;55.40;26.73;;;;;;;2.80;84.20;101284.72;1798394;79;21378;-72
2020/12/17 10:42:52;;;;;;;51.18;25.17;;;;;;;2.84;84.05;101280.88;1759788;80;21178;-72
2020/12/17 10:45:21;;;;;;;49.27;23.98;;;;;;;2.89;83.55;101287.45;1757975;80;21146;-73
2020/12/17 10:47:48;;;;;;;54.13;27.25;;;;;;;2.88;83.49;101286.58;1783818;80;21178;-74
2020/12/17 10:50:16;;;;;;;51.50;26.40;;;;;;;2.87;83.53;101290.02;1784045;80;21170;-73
2020/12/17 10:52:46;;;;;;;52.50;24.65;;;;;;;2.87;83.64;101284.81;1783897;80;21351;-74
2020/12/17 10:55:13;;;;;;;49.03;22.37;;;;;;;2.90;83.63;101286.61;1783868;80;21194;-73
2020/12/17 10:57:41;;;;;;;49.05;22.98;;;;;;;2.90;83.14;101285.31;1775770;80;21147;-71
2020/12/17 11:00:09;;;;;;;42.45;21.87;;;;;;;2.90;83.00;101282.70;1781302;79;21657;-73
2020/12/17 11:02:38;;;;;;;47.45;22.02;;;;;;;2.90;83.31;101282.70;1783575;80;21082;-75
2020/12/17 11:05:08;;;;;;;45.08;23.80;;;;;;;2.88;83.04;101282.67;1784035;80;21207;-72
2020/12/17 11:07:36;;;;;;;33.25;16.87;;;;;;;2.86;82.91;101288.72;1783973;80;21230;-73
2020/12/17 11:10:06;;;;;;;36.47;18.10;;;;;;;2.84;83.21;101285.22;1784252;80;21106;-73
2020/12/17 11:12:36;;;;;;;49.25;23.07;;;;;;;2.85;83.36;101288.25;1784040;80;21190;-72
2020/12/17 11:19:29;;;;;;;52.03;23.62;;;;;;;2.85;83.01;101288.25;1767186;78;21621;-75
2020/12/17 11:25:07;;;;;;;47.53;23.15;;;;;;;2.88;83.37;101293.52;1719852;80;75224;-70
2020/12/17 11:27:38;;;;;;;47.30;22.95;;;;;;;2.85;82.97;101288.25;1712979;82;21184;-68
2020/12/17 11:30:07;;;;;;;48.92;24.50;;;;;;;2.85;83.33;101286.95;1716843;82;21200;-69
2020/12/17 11:32:35;;;;;;;47.48;23.67;;;;;;;2.84;82.99;101288.69;1732317;82;21326;-69
2020/12/17 11:35:07;;;;;;;35.43;17.70;;;;;;;2.86;82.91;101292.62;1732229;82;21237;-70
2020/12/17 11:37:35;;;;;;;50.78;24.40;;;;;;;2.86;82.77;101297.83;1732187;82;21223;-69
2020/12/17 11:40:02;;;;;;;57.78;26.42;;;;;;;2.86;82.74;101297.83;1722731;82;21215;-70
2020/12/17 11:42:30;;;;;;;52.98;25.05;;;;;;;2.88;82.73;101302.63;1703747;81;21612;-70
2020/12/17 11:44:58;;;;;;;51.95;25.48;;;;;;;2.88;82.95;101301.33;1711436;82;21228;-69
2020/12/17 11:47:28;;;;;;;63.30;28.83;;;;;;;2.85;82.99;101300.86;1701519;84;21195;-69
2020/12/17 11:49:56;;;;;;;50.88;26.10;;;;;;;2.84;83.13;101298.23;1678058;82;21598;-70
2020/12/17 11:52:24;;;;;;;60.45;27.65;;;;;;;2.84;83.24;101304.73;1728270;82;21199;-69
2020/12/17 11:54:51;;;;;;;56.18;27.65;;;;;;;2.84;83.24;101299.53;1722810;83;21172;-69
2020/12/17 11:57:19;;;;;;;61.58;28.62;;;;;;;2.82;83.47;101301.23;1694976;83;21383;-69
2020/12/17 11:59:50;;;;;;;54.48;26.05;;;;;;;2.80;83.48;101303.80;1711700;83;21169;-70
2020/12/17 12:02:18;;;;;;;58.60;27.80;;;;;;;2.80;83.60;101302.94;1711804;83;21137;-69
2020/12/17 12:04:46;;;;;;;49.08;25.37;;;;;;;2.79;83.69;101305.97;1730292;82;21187;-70
2020/12/17 12:07:14;;;;;;;50.63;24.18;;;;;;;2.80;83.72;101309.44;1723181;83;21639;-69
2020/12/17 12:09:42;;;;;;;52.48;25.70;;;;;;;2.81;83.36;101313.81;1711578;83;21229;-70
2020/12/17 12:12:10;;;;;;;48.00;23.52;;;;;;;2.79;83.23;101309.00;1730587;82;21203;-70
2020/12/17 12:14:38;;;;;;;48.85;22.70;;;;;;;2.77;83.28;101314.61;1722937;83;21607;-70
2020/12/17 12:17:06;;;;;;;54.33;25.60;;;;;;;2.73;83.40;101319.75;1710543;82;21161;-69
2020/12/17 12:19:35;;;;;;;53.17;25.23;;;;;;;2.71;83.50;101320.18;1721265;82;21672;-69
2020/12/17 12:22:02;;;;;;;45.15;22.55;;;;;;;2.69;83.62;101321.88;1710003;81;21351;-70
2020/12/17 12:24:30;;;;;;;52.25;23.55;;;;;;;2.70;83.93;101324.92;1704149;81;21168;-68
2020/12/17 12:26:58;;;;;;;37.03;17.48;;;;;;;2.73;84.07;101319.75;1706957;83;21190;-69
2020/12/17 12:29:27;;;;;;;55.43;26.42;;;;;;;2.75;84.05;101324.98;1728185;83;21174;-69